Time;durP1;ratioP1;P1;durP2;ratioP2;P2;SDS_P1;SDS_P2;PMS_P1;PMS_P2;Temp;Humidity;BMP_temperature;BMP_pressure;BME280_temperature;BME280_humidity;BME280_pressure;Samples;Min_cycle;Max_cycle;Signal;HPM_P1;HPM_P2
2022/05/28 00:00:59;;;;;;;;;;;;;;;8.53;93.21;100155.44;6305987;22;19911;-83
2022/05/28 00:03:26;;;;;;;;;;;;;;;8.50;93.07;100160.84;6307016;22;19994;-82
2022/05/28 03:31:00;;;;;;;;;;;;;;;7.61;88.95;100155.22;6298496;22;20333;-92
2022/05/28 03:33:25;;;;;;;;;;;;;;;7.60;88.88;100156.13;6308043;22;19923;-91
2022/05/28 03:35:50;;;;;;;;;;;;;;;7.62;89.59;100159.59;6309317;22;20414;-91
2022/05/28 03:41:55;;;;;;;;;;;;;;;;;;;;;
2022/05/28 03:44:30;;;;;;;;;;;;;;;7.65;89.50;100159.53;6182148;23;19994;-92
2022/05/28 03:47:00;;;;;;;;;;;;;;;7.54;89.38;100157.16;6270051;22;20362;-92
2022/05/28 03:49:27;;;;;;;;;;;;;;;7.55;89.37;100160.66;6307719;22;19915;-93
2022/05/28 03:51:53;;;;;;;;;;;;;;;7.61;89.77;100152.56;6280918;22;20333;-92
2022/05/28 03:54:19;;;;;;;;;;;;;;;7.44;89.66;100164.41;6307373;22;19957;-92
2022/05/28 03:57:02;;;;;;;;;;;;;;;7.57;90.00;100164.13;6306608;22;20338;-96
2022/05/28 03:59:30;;;;;;;;;;;;;;;7.51;90.11;100162.50;6280509;22;19915;-91
2022/05/28 04:01:57;;;;;;;;;;;;;;;7.55;90.10;100163.31;6280217;22;19961;-90
2022/05/28 04:04:32;;;;;;;;;;;;;;;7.54;90.51;100167.69;6307128;22;19942;-90
2022/05/28 04:50:50;;;;;;;;;;;;;;;7.54;91.68;100182.66;6308943;22;19923;-94
2022/05/28 04:53:24;;;;;;;;;;;;;;;7.49;91.38;100180.13;6290748;22;20397;-91
2022/05/28 04:55:55;;;;;;;;;;;;;;;7.51;91.82;100175.69;6302537;22;19891;-92
2022/05/28 04:58:41;;;;;;;;;;;;;;;7.53;91.51;100180.91;6320291;22;19910;-91
2022/05/28 05:01:13;;;;;;;;;;;;;;;7.57;91.41;100183.44;6301584;22;19993;-92
2022/05/28 07:31:16;;;;;;;;;;;;;;;7.57;91.58;100167.63;6279490;22;19980;-83
2022/05/28 07:33:42;;;;;;;;;;;;;;;7.57;92.05;100162.34;6273821;22;20021;-82
2022/05/28 07:36:09;;;;;;;;;;;;;;;7.59;91.84;100164.94;6280130;22;19934;-83
2022/05/28 07:38:34;;;;;;;;;;;;;;;7.55;91.81;100158.88;6307359;22;19994;-83
2022/05/28 07:41:04;;;;;;;;;;;;;;;7.66;92.11;100161.28;6307396;22;19938;-82
2022/05/28 07:43:29;;;;;;;;;;;;;;;7.63;92.01;100158.72;6280068;22;19911;-83
2022/05/28 07:45:54;;;;;;;;;;;;;;;7.59;92.22;100154.41;6306310;22;19915;-83
2022/05/28 07:48:19;;;;;;;;;;;;;;;7.63;92.44;100156.06;6307418;22;20207;-83
2022/05/28 07:50:45;;;;;;;;;;;;;;;7.66;92.34;100156.00;6279979;22;19914;-82
2022/05/28 07:53:12;;;;;;;;;;;;;;;7.58;92.37;100150.06;6280168;22;20242;-83
2022/05/28 07:55:38;;;;;;;;;;;;;;;7.67;92.53;100155.06;6279991;22;20331;-83
2022/05/28 07:58:11;;;;;;;;;;;;;;;7.61;92.33;100147.31;6279860;22;19911;-83
2022/05/28 08:00:37;;;;;;;;;;;;;;;7.58;92.39;100142.13;6277891;22;19922;-83
2022/05/28 08:03:02;;;;;;;;;;;;;;;7.63;92.43;100142.88;6307265;22;20372;-82
2022/05/28 08:05:28;;;;;;;;;;;;;;;7.57;92.34;100145.66;6307626;22;19985;-82
2022/05/28 08:07:53;;;;;;;;;;;;;;;7.60;92.53;100142.94;6307396;22;20228;-83
2022/05/28 08:10:18;;;;;;;;;;;;;;;7.56;92.29;100138.66;6307570;22;19915;-82
2022/05/28 08:12:43;;;;;;;;;;;;;;;7.53;92.40;100138.72;6307055;22;19907;-82
2022/05/28 08:15:10;;;;;;;;;;;;;;;7.56;92.46;100142.16;6271119;22;19915;-82
2022/05/28 08:17:35;;;;;;;;;;;;;;;7.58;92.18;100136.88;6306985;22;19923;-82
2022/05/28 08:20:00;;;;;;;;;;;;;;;7.63;92.38;100132.34;6279516;22;20335;-82
2022/05/28 08:25:12;;;;;;;;;;;;;;;7.59;92.42;100138.56;6307058;22;19929;-86
2022/05/28 08:27:38;;;;;;;;;;;;;;;7.54;92.18;100132.56;6279306;22;19915;-82
2022/05/28 08:30:04;;;;;;;;;;;;;;;7.60;92.37;100130.63;6272712;22;19944;-83
2022/05/28 08:32:29;;;;;;;;;;;;;;;7.64;92.49;100136.69;6265314;22;19923;-82
2022/05/28 08:34:54;;;;;;;;;;;;;;;7.55;92.10;100131.66;6248782;22;19918;-82
2022/05/28 08:37:19;;;;;;;;;;;;;;;7.69;92.36;100134.81;6276001;22;20243;-83
2022/05/28 08:39:45;;;;;;;;;;;;;;;7.65;92.18;100130.50;6275900;22;19911;-82
2022/05/28 08:42:12;;;;;;;;;;;;;;;7.61;92.46;100123.56;6248739;22;19917;-82
2022/05/28 08:44:41;;;;;;;;;;;;;;;7.73;92.58;100122.41;6244215;22;20303;-83
2022/05/28 08:47:06;;;;;;;;;;;;;;;7.77;92.19;100126.69;6243221;22;19918;-82
2022/05/28 08:49:33;;;;;;;;;;;;;;;7.64;92.01;100128.75;6248793;22;19915;-83
2022/05/28 08:52:00;;;;;;;;;;;;;;;7.72;92.20;100123.31;6275802;22;19937;-82
2022/05/28 08:54:31;;;;;;;;;;;;;;;7.70;91.87;100128.63;6249089;22;19942;-83
2022/05/28 08:57:00;;;;;;;;;;;;;;;7.73;91.87;100127.69;6275874;22;19974;-83
2022/05/28 08:59:28;;;;;;;;;;;;;;;7.80;92.10;100116.06;6276091;22;19934;-83
2022/05/28 09:01:54;;;;;;;;;;;;;;;7.69;91.63;100112.84;6273972;22;20319;-83
2022/05/28 09:04:21;;;;;;;;;;;;;;;7.69;91.74;100113.72;6248723;22;19919;-82
2022/05/28 09:06:51;;;;;;;;;;;;;;;7.70;92.08;100120.69;6275650;22;20273;-83
2022/05/28 09:09:17;;;;;;;;;;;;;;;7.55;91.82;100115.84;6248524;22;19915;-83
2022/05/28 09:11:47;;;;;;;;;;;;;;;7.64;92.09;100110.31;6248014;22;20327;-83
2022/05/28 09:14:24;;;;;;;;;;;;;;;7.71;91.78;100111.91;6244173;22;19922;-83
2022/05/28 09:16:54;;;;;;;;;;;;;;;7.58;91.50;100111.34;6246922;22;19952;-82
2022/05/28 09:19:25;;;;;;;;;;;;;;;7.67;91.71;100104.09;6248383;22;20319;-83
2022/05/28 09:21:51;;;;;;;;;;;;;;;7.56;91.55;100107.00;6248429;22;20285;-82
2022/05/28 09:24:16;;;;;;;;;;;;;;;7.63;91.46;100111.22;6248595;22;19915;-83
2022/05/28 09:26:56;;;;;;;;;;;;;;;7.67;91.61;100115.50;6275645;22;20291;-84
2022/05/28 09:29:21;;;;;;;;;;;;;;;7.68;91.12;100101.41;6275634;22;19964;-84
2022/05/28 09:31:58;;;;;;;;;;;;;;;7.76;91.33;100110.00;6249857;22;19946;-83
2022/05/28 09:34:47;;;;;;;;;;;;;;;7.59;91.43;100106.94;6279029;22;19914;-83
2022/05/28 09:37:33;;;;;;;;;;;;;;;7.70;91.66;100098.75;6289712;22;20451;-83
2022/05/28 09:40:07;;;;;;;;;;;;;;;7.78;91.25;100105.53;6279447;22;19918;-83
2022/05/28 09:42:51;;;;;;;;;;;;;;;7.70;91.17;100104.88;6306804;22;19926;-83
2022/05/28 09:45:19;;;;;;;;;;;;;;;7.73;91.60;100104.81;6304779;22;19915;-83
2022/05/28 09:47:49;;;;;;;;;;;;;;;7.76;91.80;100109.13;6306418;22;19915;-83
2022/05/28 09:50:26;;;;;;;;;;;;;;;7.77;91.84;100095.91;6279352;22;19921;-84
2022/05/28 09:56:08;;;;;;;;;;;;;;;7.80;91.65;100100.22;6237836;22;19950;-83
2022/05/28 09:58:36;;;;;;;;;;;;;;;7.73;91.47;100099.53;6279003;22;19911;-83
2022/05/28 10:01:07;;;;;;;;;;;;;;;7.75;91.46;100097.69;6277358;22;20264;-83
2022/05/28 10:06:18;;;;;;;;;;;;;;;7.73;91.67;100096.03;6306369;22;20289;-82
2022/05/28 10:08:43;;;;;;;;;;;;;;;7.81;91.96;100089.63;6306499;22;19911;-83
2022/05/28 10:11:12;;;;;;;;;;;;;;;7.76;91.25;100082.75;6306344;22;19968;-83
2022/05/28 10:13:48;;;;;;;;;;;;;;;7.70;91.46;100075.00;6279327;22;19923;-83
2022/05/28 10:16:16;;;;;;;;;;;;;;;7.79;91.62;100073.00;6277333;22;19980;-83
2022/05/28 10:18:48;;;;;;;;;;;;;;;7.81;90.97;100071.16;6306157;22;19911;-83
2022/05/28 10:21:25;;;;;;;;;;;;;;;7.67;90.79;100057.47;6306235;22;19918;-83
2022/05/28 10:23:52;;;;;;;;;;;;;;;7.81;91.57;100065.03;6307360;22;19914;-83
2022/05/28 10:26:19;;;;;;;;;;;;;;;7.80;90.89;100063.28;6308198;22;19988;-83
2022/05/28 10:28:51;;;;;;;;;;;;;;;7.80;91.22;100069.44;6308402;22;20299;-83
2022/05/28 10:31:27;;;;;;;;;;;;;;;7.84;91.66;100064.09;6279083;22;20018;-83
2022/05/28 10:33:52;;;;;;;;;;;;;;;7.79;91.26;100058.94;6307722;22;19915;-83
2022/05/28 10:36:21;;;;;;;;;;;;;;;7.69;91.32;100050.41;6308086;22;19998;-84
2022/05/28 10:38:47;;;;;;;;;;;;;;;7.77;91.29;100045.78;6307950;22;20733;-83
2022/05/28 10:41:26;;;;;;;;;;;;;;;7.79;91.05;100041.34;6307953;22;19936;-83
2022/05/28 10:43:52;;;;;;;;;;;;;;;7.82;90.79;100040.41;6307823;22;19910;-83
2022/05/28 10:46:49;;;;;;;;;;;;;;;7.85;90.99;100040.31;6306471;22;19921;-83
2022/05/28 10:49:15;;;;;;;;;;;;;;;7.80;90.52;100036.91;6239786;22;19907;-89
2022/05/28 10:51:58;;;;;;;;;;;;;;;7.81;90.83;100023.69;6280522;22;19963;-83
2022/05/28 10:54:32;;;;;;;;;;;;;;;7.78;90.82;100023.75;6281018;22;19907;-83
2022/05/28 10:57:16;;;;;;;;;;;;;;;7.74;90.52;100032.69;6307891;22;20048;-83
2022/05/28 11:00:00;;;;;;;;;;;;;;;7.77;90.81;100024.69;6307800;22;19925;-83
2022/05/28 11:02:55;;;;;;;;;;;;;;;7.69;90.34;100023.16;6306340;22;19945;-83
2022/05/28 11:05:34;;;;;;;;;;;;;;;7.78;90.56;100022.91;6308279;22;20000;-83
2022/05/28 11:08:18;;;;;;;;;;;;;;;7.71;90.44;100014.31;6254415;22;19969;-83
2022/05/28 11:10:46;;;;;;;;;;;;;;;7.81;90.58;100021.03;6307661;22;19910;-83
2022/05/28 11:13:29;;;;;;;;;;;;;;;7.87;90.50;100016.53;6280341;22;20327;-83
2022/05/28 11:16:07;;;;;;;;;;;;;;;7.76;90.43;100011.53;6306059;22;19990;-83
2022/05/28 11:18:36;;;;;;;;;;;;;;;7.80;90.82;100011.41;6280107;22;20061;-83
2022/05/28 11:21:19;;;;;;;;;;;;;;;7.90;90.37;100004.09;6280425;22;19914;-84
2022/05/28 11:23:51;;;;;;;;;;;;;;;7.79;90.53;99999.13;6280246;22;19933;-83
2022/05/28 11:26:19;;;;;;;;;;;;;;;7.91;90.29;100002.31;6280293;22;19911;-84
2022/05/28 11:28:56;;;;;;;;;;;;;;;8.00;89.95;99996.78;6280274;22;20330;-83
2022/05/28 11:31:38;;;;;;;;;;;;;;;7.93;90.02;100000.50;6278662;22;19934;-83
2022/05/28 11:34:10;;;;;;;;;;;;;;;7.97;90.15;99994.22;6279947;22;19954;-83
2022/05/28 11:36:40;;;;;;;;;;;;;;;7.85;90.40;99991.94;6280090;22;19911;-83
2022/05/28 11:39:08;;;;;;;;;;;;;;;7.82;90.50;99980.56;6307378;22;19922;-83
2022/05/28 11:41:43;;;;;;;;;;;;;;;7.86;90.71;99983.97;6279931;22;19918;-83
2022/05/28 11:44:11;;;;;;;;;;;;;;;7.78;90.27;99978.91;6307305;22;19981;-83
2022/05/28 11:46:43;;;;;;;;;;;;;;;7.85;90.18;99973.47;6278378;22;19933;-83
2022/05/28 11:52:15;;;;;;;;;;;;;;;7.87;90.04;99969.03;6307264;22;19922;-83
2022/05/28 11:54:45;;;;;;;;;;;;;;;7.90;90.32;99969.81;6300078;22;20310;-83
2022/05/28 11:57:20;;;;;;;;;;;;;;;7.79;90.35;99966.63;6279555;22;20337;-83
2022/05/28 11:59:46;;;;;;;;;;;;;;;7.79;90.54;99956.06;6280021;22;19947;-82
2022/05/28 12:02:13;;;;;;;;;;;;;;;7.85;90.63;99957.63;6278586;22;19914;-83
2022/05/28 12:04:40;;;;;;;;;;;;;;;7.69;90.10;99950.19;6279887;22;20046;-83
2022/05/28 12:07:11;;;;;;;;;;;;;;;7.78;90.15;99944.63;6272789;22;19907;-84
2022/05/28 12:09:41;;;;;;;;;;;;;;;7.89;90.47;99935.56;6307197;22;20235;-83
2022/05/28 12:12:16;;;;;;;;;;;;;;;7.79;89.86;99933.16;6279539;22;20176;-83
2022/05/28 12:14:43;;;;;;;;;;;;;;;7.82;90.36;99930.44;6279834;22;20211;-83
2022/05/28 12:17:11;;;;;;;;;;;;;;;7.84;90.15;99921.63;6277802;22;19993;-83
2022/05/28 12:19:49;;;;;;;;;;;;;;;7.80;90.03;99918.19;6279629;22;19938;-83
2022/05/28 12:22:35;;;;;;;;;;;;;;;7.85;90.25;99926.88;6307017;22;19911;-83
2022/05/28 12:25:13;;;;;;;;;;;;;;;7.82;90.08;99922.53;6307269;22;20384;-83
2022/05/28 12:27:44;;;;;;;;;;;;;;;7.79;90.30;99912.06;6306950;22;19925;-83
2022/05/28 12:30:29;;;;;;;;;;;;;;;7.72;89.95;99923.72;6279566;22;19922;-84
2022/05/28 12:32:57;;;;;;;;;;;;;;;7.86;90.03;99915.38;6260557;22;19915;-83
2022/05/28 12:35:24;;;;;;;;;;;;;;;7.82;90.30;99904.06;6244865;22;20048;-84
2022/05/28 12:38:00;;;;;;;;;;;;;;;7.78;90.35;99906.84;6248398;22;19923;-83
2022/05/28 12:40:40;;;;;;;;;;;;;;;7.88;90.30;99910.94;6248847;22;19918;-83
2022/05/28 12:43:24;;;;;;;;;;;;;;;7.78;90.29;99907.69;6275856;22;19911;-83
2022/05/28 12:45:50;;;;;;;;;;;;;;;7.87;90.70;99906.56;6246916;22;19916;-83
2022/05/28 12:48:20;;;;;;;;;;;;;;;7.73;90.20;99899.06;6248634;22;20002;-83
2022/05/28 12:51:00;;;;;;;;;;;;;;;7.84;90.33;99911.09;6249183;22;20231;-83
2022/05/28 12:53:25;;;;;;;;;;;;;;;7.94;90.15;99896.69;6249105;22;19911;-83
2022/05/28 12:56:19;;;;;;;;;;;;;;;7.86;90.01;99896.06;6275710;22;20281;-83
2022/05/28 12:58:44;;;;;;;;;;;;;;;7.87;90.64;99889.88;6222599;22;19917;-83
2022/05/28 13:01:21;;;;;;;;;;;;;;;7.75;90.48;99896.38;6246914;22;19990;-83
2022/05/28 13:03:47;;;;;;;;;;;;;;;7.86;90.37;99898.69;6275796;22;20239;-83
2022/05/28 13:06:20;;;;;;;;;;;;;;;7.87;90.35;99893.38;6276374;22;19959;-83
2022/05/28 13:08:53;;;;;;;;;;;;;;;7.87;90.09;99889.88;6248651;22;19911;-83
2022/05/28 13:11:27;;;;;;;;;;;;;;;7.95;90.39;99888.72;6275556;22;19998;-83
2022/05/28 13:14:04;;;;;;;;;;;;;;;7.91;89.85;99880.94;6248539;22;19960;-83
2022/05/28 13:16:39;;;;;;;;;;;;;;;7.92;89.89;99877.41;6274053;22;19919;-83
2022/05/28 13:19:13;;;;;;;;;;;;;;;7.96;89.92;99879.91;6248401;22;19922;-83
2022/05/28 13:21:45;;;;;;;;;;;;;;;7.82;89.71;99872.41;6275521;22;19916;-83
2022/05/28 13:24:19;;;;;;;;;;;;;;;7.91;90.12;99875.69;6243960;22;19989;-83
2022/05/28 13:26:48;;;;;;;;;;;;;;;7.89;89.77;99864.31;6248444;22;19911;-83
2022/05/28 13:29:31;;;;;;;;;;;;;;;7.77;89.72;99865.53;6248317;22;19946;-83
2022/05/28 13:32:04;;;;;;;;;;;;;;;7.81;89.75;99854.84;6279094;22;20379;-83
2022/05/28 13:34:29;;;;;;;;;;;;;;;7.64;89.26;99858.00;6279196;22;20315;-83
2022/05/28 13:36:58;;;;;;;;;;;;;;;7.69;89.36;99851.72;6306473;22;19907;-83
2022/05/28 13:39:24;;;;;;;;;;;;;;;7.86;89.32;99854.72;6278961;22;19921;-83
2022/05/28 13:41:52;;;;;;;;;;;;;;;7.80;89.25;99853.13;6279172;22;19915;-83
2022/05/28 13:44:19;;;;;;;;;;;;;;;7.84;89.46;99850.41;6253398;22;19964;-84
2022/05/28 13:46:53;;;;;;;;;;;;;;;7.91;89.55;99838.75;6304713;22;20335;-83
2022/05/28 13:49:21;;;;;;;;;;;;;;;7.89;89.17;99841.41;6278919;22;20288;-84
2022/05/28 13:51:47;;;;;;;;;;;;;;;7.96;89.07;99836.81;6279195;22;19918;-84
2022/05/28 13:54:13;;;;;;;;;;;;;;;7.91;89.41;99849.28;6279329;22;19919;-84
2022/05/28 13:56:38;;;;;;;;;;;;;;;8.01;89.76;99840.19;6279088;22;20337;-83
2022/05/28 13:59:04;;;;;;;;;;;;;;;7.91;89.61;99844.88;6307331;22;19911;-84
2022/05/28 14:01:32;;;;;;;;;;;;;;;7.89;90.19;99830.00;6279328;22;20373;-84
2022/05/28 14:04:16;;;;;;;;;;;;;;;7.98;89.92;99835.88;6308430;22;19911;-84
2022/05/28 14:06:49;;;;;;;;;;;;;;;7.92;89.72;99829.94;6308443;22;19911;-83
2022/05/28 14:09:14;;;;;;;;;;;;;;;7.97;89.92;99828.00;6308088;22;20358;-83
2022/05/28 14:11:40;;;;;;;;;;;;;;;8.11;89.84;99825.78;6308315;22;19915;-83
2022/05/28 14:14:26;;;;;;;;;;;;;;;8.02;89.64;99823.44;6299865;22;19956;-83
2022/05/28 14:16:54;;;;;;;;;;;;;;;8.00;89.61;99831.41;6279399;22;19993;-84
2022/05/28 14:19:22;;;;;;;;;;;;;;;7.98;89.92;99821.81;6308106;22;20319;-86
2022/05/28 14:21:52;;;;;;;;;;;;;;;7.94;90.01;99823.66;6280684;22;19976;-83
2022/05/28 14:24:20;;;;;;;;;;;;;;;7.90;90.11;99819.41;6280992;22;19915;-84
2022/05/28 14:26:53;;;;;;;;;;;;;;;7.98;90.37;99814.75;6308184;22;19918;-83
2022/05/28 14:29:20;;;;;;;;;;;;;;;7.98;89.95;99814.75;6308074;22;19911;-83
2022/05/28 14:31:46;;;;;;;;;;;;;;;7.95;89.91;99808.72;6306518;22;19935;-84
2022/05/28 14:34:12;;;;;;;;;;;;;;;7.97;90.01;99802.47;6307988;22;19918;-83
2022/05/28 14:36:38;;;;;;;;;;;;;;;8.03;90.18;99796.16;6308028;22;20654;-83
2022/05/28 14:39:14;;;;;;;;;;;;;;;7.95;89.93;99798.16;6307935;22;20230;-83
2022/05/28 14:41:43;;;;;;;;;;;;;;;7.95;90.11;99792.88;6307830;22;20167;-83
2022/05/28 14:44:12;;;;;;;;;;;;;;;8.03;89.81;99796.16;6280486;22;19911;-84
2022/05/28 14:46:40;;;;;;;;;;;;;;;7.99;90.14;99795.38;6306236;22;19967;-83
2022/05/28 14:49:07;;;;;;;;;;;;;;;7.92;90.16;99788.56;6307996;22;19925;-83
2022/05/28 14:51:39;;;;;;;;;;;;;;;7.98;90.58;99788.38;6280331;22;20323;-83
2022/05/28 14:54:05;;;;;;;;;;;;;;;8.05;90.63;99786.38;6280717;22;19907;-83
2022/05/28 14:56:32;;;;;;;;;;;;;;;7.96;90.32;99781.41;6308099;22;19937;-83
2022/05/28 14:58:57;;;;;;;;;;;;;;;7.93;90.43;99779.75;6307863;22;20215;-83
2022/05/28 15:01:33;;;;;;;;;;;;;;;8.02;90.62;99781.22;6278722;22;19918;-83
2022/05/28 15:04:12;;;;;;;;;;;;;;;8.01;90.47;99782.16;6280443;22;19915;-83
2022/05/28 15:06:58;;;;;;;;;;;;;;;7.89;90.54;99782.53;6308145;22;20022;-89
2022/05/28 15:09:26;;;;;;;;;;;;;;;8.01;90.74;99782.16;6279797;22;20326;-83
2022/05/28 15:12:02;;;;;;;;;;;;;;;7.92;90.19;99777.16;6307604;22;19911;-83
2022/05/28 15:14:28;;;;;;;;;;;;;;;7.94;90.48;99780.59;6307993;22;19950;-83
2022/05/28 15:16:53;;;;;;;;;;;;;;;8.04;90.55;99775.88;6306217;22;19911;-83
2022/05/28 15:19:18;;;;;;;;;;;;;;;8.08;90.30;99770.47;6307837;22;19915;-83
2022/05/28 15:21:44;;;;;;;;;;;;;;;7.97;90.02;99769.94;6307985;22;19911;-83
2022/05/28 15:24:09;;;;;;;;;;;;;;;7.91;90.35;99765.72;6307711;22;19922;-83
2022/05/28 15:26:35;;;;;;;;;;;;;;;7.97;90.59;99772.59;6306794;22;20216;-82
2022/05/28 15:29:01;;;;;;;;;;;;;;;7.96;90.49;99760.28;6272664;22;19978;-84
2022/05/28 15:31:26;;;;;;;;;;;;;;;7.86;90.60;99770.28;6279180;22;19910;-83
2022/05/28 15:33:51;;;;;;;;;;;;;;;7.92;90.80;99763.97;6249993;22;19927;-83
2022/05/28 15:39:00;;;;;;;;;;;;;;;7.89;90.34;99764.91;6276067;22;19922;-83
2022/05/28 15:41:26;;;;;;;;;;;;;;;7.96;90.44;99757.66;6249282;22;19926;-83
2022/05/28 15:43:51;;;;;;;;;;;;;;;7.90;90.38;99756.09;6245040;22;19997;-83
2022/05/28 15:46:18;;;;;;;;;;;;;;;7.91;90.30;99752.53;6247864;22;19911;-83
2022/05/28 15:48:44;;;;;;;;;;;;;;;7.94;90.49;99748.94;6276086;22;19966;-83
2022/05/28 15:51:10;;;;;;;;;;;;;;;7.96;90.45;99742.72;6248955;22;19915;-83
2022/05/28 15:53:35;;;;;;;;;;;;;;;7.93;90.06;99744.56;6249230;22;19919;-82
2022/05/28 15:56:01;;;;;;;;;;;;;;;7.97;90.13;99744.41;6276384;22;20315;-83
2022/05/28 15:58:29;;;;;;;;;;;;;;;7.98;90.12;99740.03;6248734;22;19918;-82
2022/05/28 16:00:55;;;;;;;;;;;;;;;7.93;89.95;99741.91;6247924;22;19922;-83
2022/05/28 16:03:21;;;;;;;;;;;;;;;7.89;90.03;99737.69;6249523;22;19960;-82
2022/05/28 16:05:48;;;;;;;;;;;;;;;7.94;90.34;99739.25;6248563;22;19911;-83
2022/05/28 16:08:24;;;;;;;;;;;;;;;7.96;90.17;99736.56;6275887;22;19923;-83
2022/05/28 16:10:51;;;;;;;;;;;;;;;8.64;88.73;99734.28;6249130;22;19911;-81
2022/05/28 16:13:17;;;;;;;;;;;;;;;8.32;89.68;99725.69;6271562;22;19915;-81
2022/05/28 16:15:42;;;;;;;;;;;;;;;8.16;89.82;99730.63;6247562;22;19912;-81
2022/05/28 16:18:08;;;;;;;;;;;;;;;8.13;90.01;99721.00;6249102;22;19965;-81
2022/05/28 16:20:33;;;;;;;;;;;;;;;8.15;90.33;99716.56;6248371;22;19911;-81
2022/05/28 16:22:58;;;;;;;;;;;;;;;8.09;90.07;99714.13;6244523;22;20006;-81
2022/05/28 16:25:24;;;;;;;;;;;;;;;8.11;90.39;99714.94;6274894;22;20323;-81
2022/05/28 16:27:49;;;;;;;;;;;;;;;8.15;90.52;99715.69;6275429;22;19923;-81
2022/05/28 16:30:17;;;;;;;;;;;;;;;8.02;90.20;99714.38;6275544;22;20441;-81
2022/05/28 16:32:43;;;;;;;;;;;;;;;8.05;90.48;99706.38;6290747;22;19968;-82
2022/05/28 16:35:08;;;;;;;;;;;;;;;8.09;90.72;99711.50;6306695;22;19914;-81
2022/05/28 16:37:33;;;;;;;;;;;;;;;8.05;90.40;99704.59;6272558;22;19915;-81
2022/05/28 16:39:59;;;;;;;;;;;;;;;8.04;90.59;99709.91;6277964;22;19922;-81
2022/05/28 16:42:24;;;;;;;;;;;;;;;8.08;90.79;99703.63;6305098;22;20388;-81
2022/05/28 16:44:49;;;;;;;;;;;;;;;8.06;90.41;99701.03;6279168;22;19918;-81
2022/05/28 16:47:15;;;;;;;;;;;;;;;8.07;90.46;99709.81;6304987;22;19915;-81
2022/05/28 16:49:40;;;;;;;;;;;;;;;8.13;90.73;99707.81;6279348;22;20290;-81
2022/05/28 16:52:06;;;;;;;;;;;;;;;8.06;90.60;99711.59;6306874;22;19946;-82
2022/05/28 16:54:31;;;;;;;;;;;;;;;8.06;90.64;99706.31;6279259;22;19915;-81
2022/05/28 16:56:56;;;;;;;;;;;;;;;8.14;90.79;99714.84;6279371;22;19911;-81
2022/05/28 16:59:22;;;;;;;;;;;;;;;8.12;90.68;99711.41;6279292;22;19955;-81
2022/05/28 17:01:47;;;;;;;;;;;;;;;8.06;90.56;99708.97;6276970;22;19989;-80
2022/05/28 17:04:12;;;;;;;;;;;;;;;8.04;90.87;99707.28;6278890;22;20212;-81
2022/05/28 17:06:38;;;;;;;;;;;;;;;8.04;90.81;99705.53;6306632;22;20386;-81
2022/05/28 17:09:03;;;;;;;;;;;;;;;8.01;90.53;99713.53;6279181;22;20216;-81
2022/05/28 17:11:29;;;;;;;;;;;;;;;8.03;90.56;99708.22;6279691;22;19911;-81
2022/05/28 17:13:55;;;;;;;;;;;;;;;8.03;90.70;99706.41;6299565;22;19919;-81
2022/05/28 17:16:20;;;;;;;;;;;;;;;7.98;90.25;99705.72;6277212;22;20392;-81
2022/05/28 17:18:46;;;;;;;;;;;;;;;8.04;90.38;99713.44;6306926;22;19911;-81
2022/05/28 17:21:16;;;;;;;;;;;;;;;8.08;90.26;99709.75;6279199;22;19910;-81
2022/05/28 17:23:41;;;;;;;;;;;;;;;8.09;89.87;99707.97;6306270;22;19918;-81
2022/05/28 17:26:06;;;;;;;;;;;;;;;8.00;89.80;99707.38;6271694;22;19915;-82
2022/05/28 17:28:31;;;;;;;;;;;;;;;8.08;90.08;99708.91;6306447;22;19972;-81
2022/05/28 17:30:57;;;;;;;;;;;;;;;8.11;90.08;99700.88;6277732;22;19967;-81
2022/05/28 17:33:24;;;;;;;;;;;;;;;8.07;89.84;99694.84;6305609;22;19915;-81
2022/05/28 17:35:50;;;;;;;;;;;;;;;8.12;90.11;99700.84;6279449;22;19922;-81
2022/05/28 17:38:16;;;;;;;;;;;;;;;8.23;90.08;99702.22;6278961;22;19915;-81
2022/05/28 17:40:41;;;;;;;;;;;;;;;8.21;89.86;99701.44;6278988;22;19926;-81
2022/05/28 17:43:07;;;;;;;;;;;;;;;8.09;90.16;99698.31;6278838;22;19914;-81
2022/05/28 17:45:34;;;;;;;;;;;;;;;8.16;90.26;99699.81;6276380;22;21293;-81
2022/05/28 17:48:01;;;;;;;;;;;;;;;8.18;90.36;99700.63;6279161;22;19964;-81
2022/05/28 17:50:26;;;;;;;;;;;;;;;8.11;90.27;99692.97;6279082;22;19910;-81
2022/05/28 17:52:51;;;;;;;;;;;;;;;8.05;90.23;99694.03;6278608;22;19919;-81
2022/05/28 17:55:18;;;;;;;;;;;;;;;8.06;90.37;99693.13;6253015;22;19911;-81
2022/05/28 17:57:46;;;;;;;;;;;;;;;8.09;90.07;99697.41;6276069;22;19915;-81
2022/05/28 18:00:22;;;;;;;;;;;;;;;8.06;89.93;99690.50;6276870;22;20319;-80
2022/05/28 18:02:49;;;;;;;;;;;;;;;8.10;90.21;99686.81;6304497;22;19914;-84
2022/05/28 18:05:15;;;;;;;;;;;;;;;8.08;89.89;99693.94;6304309;22;19964;-81
2022/05/28 18:07:41;;;;;;;;;;;;;;;7.98;89.86;99695.16;6277590;22;20269;-81
2022/05/28 18:10:06;;;;;;;;;;;;;;;8.06;90.03;99693.13;6277946;22;19917;-81
2022/05/28 18:12:32;;;;;;;;;;;;;;;8.05;89.89;99693.19;6277747;22;20234;-81
2022/05/28 18:14:57;;;;;;;;;;;;;;;7.98;89.75;99688.09;6304720;22;19911;-81
2022/05/28 18:17:22;;;;;;;;;;;;;;;7.98;90.04;99682.81;6275937;22;19918;-81
2022/05/28 18:19:48;;;;;;;;;;;;;;;8.58;88.57;99686.97;6278464;22;19915;-85
2022/05/28 18:22:16;;;;;;;;;;;;;;;9.00;87.48;99688.91;6276865;22;19930;-82
2022/05/28 18:24:42;;;;;;;;;;;;;;;8.09;89.28;99687.75;6305309;22;19921;-86
2022/05/28 18:27:08;;;;;;;;;;;;;;;7.76;91.14;99681.81;6278186;22;19946;-87
2022/05/28 18:29:34;;;;;;;;;;;;;;;7.59;91.79;99679.72;6305404;22;19914;-86
2022/05/28 18:31:59;;;;;;;;;;;;;;;7.45;92.03;99681.03;6302444;22;19927;-86
2022/05/28 18:34:24;;;;;;;;;;;;;;;7.42;92.52;99683.78;6304407;22;20515;-88
2022/05/28 18:36:50;;;;;;;;;;;;;;;7.40;92.43;99682.97;6277158;22;19914;-88
2022/05/28 18:39:23;;;;;;;;;;;;;;;7.33;92.20;99684.06;6277758;22;19915;-87
2022/05/28 18:41:48;;;;;;;;;;;;;;;7.29;92.38;99690.31;6304777;22;19960;-87
2022/05/28 18:44:16;;;;;;;;;;;;;;;7.29;92.39;99679.78;6276954;22;19911;-89
2022/05/28 18:46:44;;;;;;;;;;;;;;;7.15;92.26;99674.94;6304181;22;19915;-87
2022/05/28 18:49:09;;;;;;;;;;;;;;;7.18;92.37;99677.50;6278357;22;19910;-87
2022/05/28 18:51:36;;;;;;;;;;;;;;;7.28;92.42;99675.44;6278706;22;20245;-87
2022/05/28 18:54:04;;;;;;;;;;;;;;;7.21;91.88;99680.03;6279640;22;20008;-87
2022/05/28 18:56:32;;;;;;;;;;;;;;;7.22;92.15;99675.63;6306490;22;20380;-86
2022/05/28 18:58:57;;;;;;;;;;;;;;;7.34;92.26;99674.38;6305695;22;19915;-87
2022/05/28 19:01:23;;;;;;;;;;;;;;;7.22;91.69;99671.19;6303653;22;19977;-85
2022/05/28 19:03:50;;;;;;;;;;;;;;;7.17;91.88;99670.50;6278929;22;19911;-86
2022/05/28 19:06:16;;;;;;;;;;;;;;;7.31;92.00;99675.34;6279111;22;19915;-86
2022/05/28 19:08:42;;;;;;;;;;;;;;;7.32;91.63;99677.03;6305554;22;19911;-85
2022/05/28 19:11:09;;;;;;;;;;;;;;;7.25;91.69;99672.88;6306597;22;20000;-87
2022/05/28 19:13:39;;;;;;;;;;;;;;;7.31;91.85;99671.81;6306615;22;20323;-88
2022/05/28 19:16:04;;;;;;;;;;;;;;;7.63;91.36;99673.44;6305045;22;19934;-87
2022/05/28 19:18:30;;;;;;;;;;;;;;;7.41;91.49;99671.50;6306727;22;20315;-87
2022/05/28 19:20:56;;;;;;;;;;;;;;;7.37;91.75;99664.59;6278377;22;19938;-86
2022/05/28 19:23:22;;;;;;;;;;;;;;;7.31;91.74;99671.81;6306192;22;19973;-86
2022/05/28 19:28:33;;;;;;;;;;;;;;;7.28;91.61;99671.00;6305619;22;19998;-85
2022/05/28 19:30:59;;;;;;;;;;;;;;;7.26;91.84;99675.47;6305096;22;20045;-86
2022/05/28 19:33:29;;;;;;;;;;;;;;;7.31;92.07;99677.97;6278634;22;20347;-85
2022/05/28 19:35:56;;;;;;;;;;;;;;;7.29;91.90;99669.22;6279124;22;20013;-87
2022/05/28 19:38:22;;;;;;;;;;;;;;;7.28;91.99;99675.44;6279416;22;19987;-86
2022/05/28 19:40:49;;;;;;;;;;;;;;;7.32;92.14;99673.56;6278772;22;20273;-87
2022/05/28 19:43:19;;;;;;;;;;;;;;;7.38;91.92;99676.00;6305796;22;19957;-87
2022/05/28 19:45:45;;;;;;;;;;;;;;;7.28;91.98;99680.72;6304410;22;19968;-82
2022/05/28 19:48:15;;;;;;;;;;;;;;;7.30;92.24;99678.03;6279221;22;19918;-82
2022/05/28 19:50:40;;;;;;;;;;;;;;;7.36;92.30;99691.88;6305613;22;19918;-83
2022/05/28 19:53:06;;;;;;;;;;;;;;;7.24;92.19;99684.34;6305957;22;19911;-83
2022/05/28 19:55:31;;;;;;;;;;;;;;;7.24;92.58;99689.59;6278559;22;20299;-83
2022/05/28 19:57:57;;;;;;;;;;;;;;;7.34;92.79;99691.06;6277381;22;20286;-84
2022/05/28 20:00:22;;;;;;;;;;;;;;;7.28;92.36;99696.53;6304012;22;20311;-83
2022/05/28 20:02:48;;;;;;;;;;;;;;;7.25;92.67;99696.63;6305426;22;20208;-82